メインページ
METAR-TAF:

METAR-TAF

空港 :

青森空港

青森, 日本

緯度: 40-44N, 経度: 140-42E, 海抜: 199m

現時点の気象観測

当レポートは1時間6分前の11:00(UTC)に作成
南西の風 4kt、南/南東から北/北西の間で変化する
気温 9°C
湿度 81%
気圧 1019 hPa
視程10km以上
高度1500ftの雲はほとんどない

METAR: RJSA 201100Z 22004KT 160V330 9999 FEW015 09/06 Q1019

時間: 21:06 (12:06 UTC)

予報

当レポートは1時間1分前の11:05(UTC)に作成
予報は20日の 12時(UTC)から 21日の 18時(UTC)まで有効
南/南西の風 8kt
視程10km以上
高度500ftの雲はほとんどない
高度1500ftの雲は散在している
20日の 12時(UTC)から 20日の 15時(UTC)まで一時的に
視程: 4000m
高度200ftの雲はほとんどない
高度500ftの千切れ雲あり
高度1000ftの千切れ雲あり
21日の 00時(UTC)から 21日の 03時(UTC)まで徐々に
西の風 10kt
21日の 09時(UTC)から 21日の 12時(UTC)まで徐々に
南/南西の風 8kt

TAF: RJSA 201105Z 2012/2118 21008KT 9999 FEW005 SCT015 TEMPO 2012/2015 4000 BR FEW002 BKN005 BKN010 BECMG 2100/2103 27010KT BECMG 2109/2112 21008KT

4,000以上の空港の気象観測と天気予報(METAR報とTAF報)

利用可能な観測所は地図上に黄色い丸と赤い丸で示す。

丸の上にカーソルを重ねると観測所名を参照できる。

次にクリックすると気象観測と天気予報を参照できる。

マップの切り替え:黒色「×」印の緑ボタンをクリックして拡大、「-」印の緑ボタンをクリックして縮小、緑色の三角印をクリックして隣りの地図に切り替え


METAR-TAF: